createdAt,value
2023-02-03T00:01:56.737Z,75.45
2023-02-03T00:04:58.923Z,73.00
2023-02-03T00:08:01.555Z,65.90
2023-02-03T00:11:03.837Z,74.68
2023-02-03T00:14:08.063Z,76.53
2023-02-03T00:17:10.240Z,70.70
2023-02-03T00:20:12.534Z,75.78
2023-02-03T00:23:15.005Z,75.50
2023-02-03T00:26:18.210Z,77.90
2023-02-03T00:29:25.101Z,83.05
2023-02-03T00:32:27.567Z,86.20
2023-02-03T00:35:29.925Z,91.53
2023-02-03T00:38:33.749Z,85.05
2023-02-03T00:41:35.928Z,90.18
2023-02-03T00:44:38.049Z,84.47
2023-02-03T00:47:40.143Z,91.68
2023-02-03T00:50:42.313Z,89.30
2023-02-03T00:53:44.406Z,85.15
2023-02-03T00:56:46.499Z,82.03
2023-02-03T00:59:48.617Z,89.50
2023-02-03T01:02:50.751Z,83.53
2023-02-03T01:05:52.879Z,89.57
2023-02-03T01:08:55.450Z,92.13
2023-02-03T01:11:57.619Z,92.30
2023-02-03T01:14:59.824Z,89.50
2023-02-03T01:18:02.066Z,85.13
2023-02-03T01:21:09.010Z,96.07
2023-02-03T01:24:11.324Z,98.60
2023-02-03T01:27:14.644Z,87.13
2023-02-03T01:30:17.080Z,94.75
2023-02-03T01:33:19.226Z,88.78
2023-02-03T01:36:24.536Z,102.93
2023-02-03T01:39:27.423Z,99.03
2023-02-03T01:42:33.596Z,93.28
2023-02-03T01:45:35.788Z,105.78
2023-02-03T01:48:37.958Z,103.25
2023-02-03T01:51:42.383Z,106.70
2023-02-03T01:54:47.664Z,109.93
2023-02-03T01:57:58.974Z,107.35
2023-02-03T02:01:01.431Z,99.68
2023-02-03T02:04:06.675Z,103.72
2023-02-03T02:07:10.355Z,106.63
2023-02-03T02:10:14.839Z,104.30
2023-02-03T02:13:19.202Z,115.78
2023-02-03T02:16:24.821Z,99.88
2023-02-03T02:19:45.817Z,108.43
2023-02-03T02:23:21.642Z,102.60
2023-02-03T02:26:51.437Z,109.05
2023-02-03T02:30:08.661Z,106.72
2023-02-03T02:33:28.791Z,107.38
2023-02-03T02:36:43.194Z,111.53
2023-02-03T02:40:00.657Z,123.18
2023-02-03T02:43:39.841Z,91.93
2023-02-03T02:46:52.816Z,103.20
2023-02-03T02:50:09.048Z,113.95
2023-02-03T02:53:13.779Z,101.85
2023-02-03T02:56:19.712Z,109.30
2023-02-03T02:59:23.271Z,111.22
2023-02-03T03:02:36.357Z,115.20
2023-02-03T03:05:41.070Z,112.72
2023-02-03T03:08:48.172Z,115.22
2023-02-03T03:11:56.374Z,111.40
2023-02-03T03:15:03.730Z,114.88
2023-02-03T03:18:39.085Z,100.97
2023-02-03T03:21:47.101Z,99.13
2023-02-03T03:24:52.870Z,122.57
2023-02-03T03:28:00.827Z,107.10
2023-02-03T03:31:03.283Z,100.38
2023-02-03T03:34:05.577Z,112.90
2023-02-03T03:37:07.708Z,108.38
2023-02-03T03:40:21.092Z,111.43
2023-02-03T03:43:29.854Z,118.97
2023-02-03T03:46:41.625Z,106.55
2023-02-03T03:49:47.038Z,113.00
2023-02-03T03:52:50.871Z,110.43
2023-02-03T03:55:55.010Z,102.80
2023-02-03T03:58:59.759Z,110.28
2023-02-03T04:02:04.942Z,111.82
2023-02-03T04:05:08.633Z,116.05
2023-02-03T04:08:10.989Z,112.60
2023-02-03T04:11:33.127Z,114.15
2023-02-03T04:14:39.093Z,123.45
2023-02-03T04:17:41.277Z,111.18
2023-02-03T04:20:43.952Z,116.10
2023-02-03T04:23:46.235Z,112.32
2023-02-03T04:26:48.429Z,117.35
2023-02-03T04:29:50.847Z,107.68
2023-02-03T04:32:53.716Z,116.00
2023-02-03T04:35:56.008Z,112.30
2023-02-03T04:38:58.242Z,109.80
2023-02-03T04:42:00.377Z,103.65
2023-02-03T04:45:02.616Z,117.22
2023-02-03T04:48:05.034Z,117.30
2023-02-03T04:51:09.639Z,116.28
2023-02-03T04:54:12.137Z,110.10
2023-02-03T04:57:14.260Z,110.93
2023-02-03T05:00:16.563Z,103.38
2023-02-03T05:03:18.827Z,97.18
2023-02-03T05:06:29.082Z,112.72
2023-02-03T05:09:31.411Z,99.93
2023-02-03T05:12:33.623Z,105.93
2023-02-03T05:15:35.834Z,113.05
2023-02-03T05:18:37.999Z,112.70
2023-02-03T05:21:40.299Z,106.82
2023-02-03T05:24:42.407Z,112.50
2023-02-03T05:27:44.604Z,121.20
2023-02-03T05:30:46.952Z,112.63
2023-02-03T05:33:49.079Z,104.78
2023-02-03T05:36:51.253Z,120.20
2023-02-03T05:39:53.452Z,116.90
2023-02-03T05:42:55.779Z,117.22
2023-02-03T05:46:01.878Z,116.22
2023-02-03T05:49:04.168Z,121.30
2023-02-03T05:52:06.249Z,116.75
2023-02-03T05:55:08.565Z,108.82
2023-02-03T05:58:10.725Z,118.85
2023-02-03T06:01:12.869Z,122.97
2023-02-03T06:04:15.118Z,117.43
2023-02-03T06:07:17.376Z,111.57
2023-02-03T06:10:19.545Z,105.18
2023-02-03T06:13:21.697Z,99.70
2023-02-03T06:16:25.086Z,101.32
2023-02-03T06:19:27.300Z,107.28
2023-02-03T06:22:29.515Z,106.10
2023-02-03T06:25:32.807Z,98.68
2023-02-03T06:28:35.581Z,95.00
2023-02-03T06:31:37.869Z,92.63
2023-02-03T06:34:40.441Z,95.97
2023-02-03T06:37:42.563Z,88.38
2023-02-03T06:40:47.750Z,97.05
2023-02-03T06:43:49.984Z,93.57
2023-02-03T06:46:52.398Z,94.35
2023-02-03T06:49:54.598Z,99.32
2023-02-03T06:52:56.752Z,94.78
2023-02-03T06:55:58.932Z,97.63
2023-02-03T06:59:01.145Z,100.30
2023-02-03T07:02:03.291Z,96.85
2023-02-03T07:05:06.089Z,91.57
2023-02-03T07:08:08.278Z,96.60
2023-02-03T07:11:11.124Z,91.03
2023-02-03T07:14:13.257Z,86.68
2023-02-03T07:17:15.319Z,99.18
2023-02-03T07:20:17.630Z,98.22
2023-02-03T07:23:20.122Z,94.35
2023-02-03T07:26:23.228Z,96.30
2023-02-03T07:29:25.306Z,95.55
2023-02-03T07:32:27.558Z,90.97
2023-02-03T07:35:29.690Z,97.75
2023-02-03T07:38:32.259Z,102.28
2023-02-03T07:41:34.462Z,97.97
2023-02-03T07:44:36.727Z,101.63
2023-02-03T07:47:40.022Z,86.47
2023-02-03T07:50:42.126Z,92.25
2023-02-03T07:53:44.231Z,104.53
2023-02-03T07:56:46.345Z,94.70
2023-02-03T07:59:48.506Z,98.05
2023-02-03T08:02:50.898Z,93.72
2023-02-03T08:05:53.635Z,96.05
2023-02-03T08:08:55.789Z,104.68
2023-02-03T08:11:58.060Z,93.82
2023-02-03T08:15:00.253Z,90.10
2023-02-03T08:18:02.423Z,92.82
2023-02-03T08:21:05.041Z,101.78
2023-02-03T08:24:07.356Z,111.40
2023-02-03T08:27:09.491Z,102.45
2023-02-03T08:30:14.131Z,111.82
2023-02-03T08:33:16.286Z,117.28
2023-02-03T08:36:18.451Z,111.97
2023-02-03T08:39:20.628Z,111.50
2023-02-03T08:42:22.778Z,106.95
2023-02-03T08:45:24.980Z,106.97
2023-02-03T08:48:27.150Z,111.75
2023-02-03T08:51:30.142Z,114.05
2023-02-03T08:54:32.753Z,114.72
2023-02-03T08:57:38.358Z,116.53
2023-02-03T09:00:40.610Z,107.50
2023-02-03T09:03:43.016Z,111.32
2023-02-03T09:06:48.480Z,112.20
2023-02-03T09:09:50.755Z,105.32
2023-02-03T09:12:52.961Z,113.28
2023-02-03T09:15:55.223Z,113.00
2023-02-03T09:18:57.347Z,99.43
2023-02-03T09:21:59.991Z,111.15
2023-02-03T09:25:02.521Z,116.20
2023-02-03T09:28:05.061Z,112.78
2023-02-03T09:31:09.991Z,118.13
2023-02-03T09:34:12.232Z,117.63
2023-02-03T09:37:14.563Z,117.13
2023-02-03T09:40:26.312Z,116.72
2023-02-03T09:43:46.648Z,117.30
2023-02-03T09:47:01.818Z,109.63
2023-02-03T09:50:19.930Z,106.65
2023-02-03T09:53:30.945Z,122.45
2023-02-03T09:56:36.355Z,115.47
2023-02-03T09:59:40.899Z,108.70
2023-02-03T10:02:54.951Z,115.13
2023-02-03T10:06:51.601Z,112.78
2023-02-03T10:10:35.138Z,103.63
2023-02-03T10:13:52.129Z,113.82
2023-02-03T10:17:00.074Z,115.55
2023-02-03T10:20:23.396Z,112.30
2023-02-03T10:23:36.375Z,112.03
2023-02-03T10:26:40.764Z,108.65
2023-02-03T10:29:43.849Z,115.82
2023-02-03T10:32:46.229Z,111.53
2023-02-03T10:35:57.606Z,116.65
2023-02-03T10:39:27.506Z,105.63
2023-02-03T10:42:51.412Z,115.68
2023-02-03T10:45:53.595Z,114.32
2023-02-03T10:48:56.332Z,116.82
2023-02-03T10:52:05.077Z,110.00
2023-02-03T10:55:27.486Z,116.65
2023-02-03T10:58:31.432Z,102.25
2023-02-03T11:01:46.946Z,116.82
2023-02-03T11:05:08.192Z,107.82
2023-02-03T11:08:15.761Z,116.25
2023-02-03T11:11:22.365Z,117.85
2023-02-03T11:14:26.113Z,110.82
2023-02-03T11:17:30.517Z,116.32
2023-02-03T11:20:36.354Z,116.85
2023-02-03T11:23:47.697Z,110.57
2023-02-03T11:26:53.762Z,114.60
2023-02-03T11:30:30.429Z,107.28
2023-02-03T11:33:33.364Z,109.38
2023-02-03T11:36:36.011Z,102.72
2023-02-03T11:39:39.239Z,113.25
2023-02-03T11:43:03.856Z,105.85
2023-02-03T11:46:10.010Z,119.88
2023-02-03T11:49:50.839Z,111.40
2023-02-03T11:53:14.652Z,106.40
2023-02-03T11:56:49.943Z,114.57
2023-02-03T12:00:31.238Z,110.82
2023-02-03T12:03:33.376Z,114.97
2023-02-03T12:07:17.335Z,112.53
2023-02-03T12:10:31.373Z,108.40
2023-02-03T12:13:57.759Z,107.60
2023-02-03T12:17:06.157Z,108.93
2023-02-03T12:20:22.486Z,117.78
2023-02-03T12:23:27.340Z,107.85
2023-02-03T12:26:41.737Z,113.78
2023-02-03T12:29:48.329Z,110.10
2023-02-03T12:32:55.879Z,109.13
2023-02-03T12:36:21.161Z,104.68
2023-02-03T12:39:28.995Z,111.40
2023-02-03T12:42:34.003Z,97.97
2023-02-03T12:45:40.429Z,110.25
2023-02-03T12:48:50.758Z,108.82
2023-02-03T12:55:37.430Z,113.60
2023-02-03T12:58:57.608Z,102.28
2023-02-03T13:02:13.965Z,104.80
2023-02-03T13:05:32.897Z,107.60
2023-02-03T13:08:43.471Z,104.32
2023-02-03T13:12:04.514Z,111.57
2023-02-03T13:15:34.364Z,110.25
2023-02-03T13:18:40.295Z,107.43
2023-02-03T13:21:42.540Z,90.28
2023-02-03T13:24:52.713Z,98.20
2023-02-03T13:28:03.997Z,91.35
2023-02-03T13:31:09.524Z,109.75
2023-02-03T13:34:17.464Z,99.70
2023-02-03T13:37:38.369Z,102.22
2023-02-03T13:41:19.602Z,102.40
2023-02-03T13:44:29.623Z,96.65
2023-02-03T13:47:33.057Z,107.90
2023-02-03T13:50:37.285Z,96.85
2023-02-03T13:53:41.419Z,107.43
2023-02-03T13:56:59.937Z,97.90
2023-02-03T14:00:05.922Z,96.13
2023-02-03T14:03:18.817Z,109.00
2023-02-03T14:06:45.696Z,98.10
2023-02-03T14:09:48.445Z,105.57
2023-02-03T14:12:50.625Z,106.88
2023-02-03T14:16:23.932Z,107.15
2023-02-03T14:19:26.184Z,104.70
2023-02-03T14:22:29.493Z,102.55
2023-02-03T14:25:52.596Z,107.70
2023-02-03T14:28:55.041Z,99.50
2023-02-03T14:32:06.576Z,106.80
2023-02-03T14:35:18.544Z,108.80
2023-02-03T14:38:21.936Z,99.63
2023-02-03T14:41:33.746Z,114.80
2023-02-03T14:44:52.658Z,102.30
2023-02-03T14:48:30.021Z,106.75
2023-02-03T14:52:02.469Z,106.32
2023-02-03T14:55:24.853Z,107.90
2023-02-03T14:58:43.139Z,109.82
2023-02-03T15:01:45.306Z,108.00
2023-02-03T15:04:50.461Z,104.05
2023-02-03T15:07:52.723Z,111.95
2023-02-03T15:10:55.000Z,106.07
2023-02-03T15:14:24.568Z,103.93
2023-02-03T15:17:28.999Z,109.40
2023-02-03T15:20:41.589Z,113.93
2023-02-03T15:23:48.360Z,112.15
2023-02-03T15:26:57.092Z,111.38
2023-02-03T15:30:14.187Z,111.88
2023-02-03T15:33:21.431Z,112.43
2023-02-03T15:36:27.853Z,116.07
2023-02-03T15:39:46.406Z,115.68
2023-02-03T15:42:55.049Z,110.50
2023-02-03T15:46:00.991Z,116.63
2023-02-03T15:49:11.692Z,112.10
2023-02-03T15:52:23.294Z,113.85
2023-02-03T15:55:43.941Z,110.93
2023-02-03T15:58:46.603Z,119.53
2023-02-03T16:01:48.932Z,119.20
2023-02-03T16:04:51.301Z,118.53
2023-02-03T16:07:53.669Z,106.75
2023-02-03T16:10:56.188Z,119.90
2023-02-03T16:14:03.808Z,129.48
2023-02-03T16:17:07.052Z,133.93
2023-02-03T16:20:11.963Z,132.23
2023-02-03T16:23:24.019Z,139.73
2023-02-03T16:26:28.830Z,139.23
2023-02-03T16:29:55.250Z,146.27
2023-02-03T16:33:29.648Z,139.73
2023-02-03T16:36:50.496Z,137.90
2023-02-03T16:40:11.288Z,140.02
2023-02-03T16:43:33.995Z,128.77
2023-02-03T16:46:55.938Z,136.18
2023-02-03T16:50:21.542Z,129.68
2023-02-03T16:53:31.445Z,121.55
2023-02-03T16:56:33.698Z,134.15
2023-02-03T16:59:35.942Z,126.10
2023-02-03T17:02:38.176Z,136.65
2023-02-03T17:05:43.019Z,133.68
2023-02-03T17:08:45.142Z,120.32
2023-02-03T17:11:47.560Z,124.28
2023-02-03T17:14:49.622Z,129.90
2023-02-03T17:17:51.732Z,131.02
2023-02-03T17:20:53.993Z,125.53
2023-02-03T17:23:57.589Z,129.63
2023-02-03T17:26:59.717Z,121.82
2023-02-03T17:30:02.588Z,124.18
2023-02-03T17:33:13.052Z,122.72
2023-02-03T17:36:17.437Z,119.65
2023-02-03T17:55:41.026Z,108.10
2023-02-03T17:58:43.501Z,117.63
2023-02-03T18:01:46.970Z,117.05
2023-02-03T18:04:49.149Z,119.40
2023-02-03T18:07:51.294Z,121.43
2023-02-03T18:10:53.451Z,117.53
2023-02-03T18:13:56.316Z,109.72
2023-02-03T18:16:58.509Z,119.55
2023-02-03T18:20:01.557Z,108.20
2023-02-03T18:23:03.994Z,115.45
2023-02-03T18:26:08.218Z,118.13
2023-02-03T18:29:12.743Z,104.38
2023-02-03T18:32:16.344Z,107.57
2023-02-03T18:35:18.850Z,106.00
2023-02-03T18:38:21.153Z,116.28
2023-02-03T18:41:25.349Z,111.82
2023-02-03T18:44:27.721Z,111.88
2023-02-03T18:47:30.231Z,114.82
2023-02-03T18:50:32.751Z,113.22
2023-02-03T18:53:36.145Z,112.80
2023-02-03T18:56:38.467Z,110.20
2023-02-03T18:59:40.834Z,111.65
2023-02-03T19:02:43.075Z,118.30
2023-02-03T19:05:45.264Z,116.90
2023-02-03T19:08:47.618Z,119.07
2023-02-03T19:11:49.953Z,114.65
2023-02-03T19:14:52.529Z,113.57
2023-02-03T19:17:54.789Z,116.22
2023-02-03T19:20:56.897Z,102.82
2023-02-03T19:23:59.102Z,114.53
2023-02-03T19:27:01.285Z,115.40
2023-02-03T19:30:04.394Z,111.32
2023-02-03T19:33:06.560Z,109.05
2023-02-03T19:36:09.343Z,112.85
2023-02-03T19:39:11.540Z,113.43
2023-02-03T19:42:13.621Z,111.55
2023-02-03T19:45:15.981Z,111.35
2023-02-03T19:48:18.497Z,114.32
2023-02-03T19:51:20.598Z,107.07
2023-02-03T19:54:22.723Z,108.57
2023-02-03T19:57:24.906Z,109.53
2023-02-03T20:00:28.367Z,103.13
2023-02-03T20:03:30.671Z,103.43
2023-02-03T20:06:32.886Z,99.45
2023-02-03T20:09:35.052Z,107.85
2023-02-03T20:12:37.188Z,111.63
2023-02-03T20:15:39.598Z,107.50
2023-02-03T20:18:41.712Z,108.07
2023-02-03T20:21:43.948Z,111.00
2023-02-03T20:24:46.056Z,108.20
2023-02-03T20:27:48.283Z,107.80
2023-02-03T20:30:52.314Z,100.80
2023-02-03T20:33:54.569Z,106.78
2023-02-03T20:36:58.571Z,105.30
2023-02-03T20:40:00.825Z,106.43
2023-02-03T20:43:23.670Z,104.60
2023-02-03T20:46:26.011Z,97.90
2023-02-03T20:49:28.255Z,109.78
2023-02-03T20:52:30.392Z,106.60
2023-02-03T20:55:36.263Z,99.72
2023-02-03T20:58:40.268Z,113.18
2023-02-03T21:01:42.514Z,99.85
2023-02-03T21:04:57.681Z,104.38
2023-02-03T21:08:00.096Z,92.30
2023-02-03T21:11:03.317Z,96.25
2023-02-03T21:14:26.023Z,92.47
2023-02-03T21:17:28.442Z,88.15
2023-02-03T21:20:32.528Z,107.82
2023-02-03T21:23:46.840Z,99.80
2023-02-03T21:26:49.771Z,92.28
2023-02-03T21:29:55.899Z,102.35
2023-02-03T21:33:01.651Z,110.55
2023-02-03T21:36:04.047Z,94.55
2023-02-03T21:39:24.260Z,83.18
2023-02-03T21:42:45.596Z,96.90
2023-02-03T21:45:49.161Z,85.75
2023-02-03T21:48:53.648Z,94.60
2023-02-03T21:51:55.869Z,90.15
2023-02-03T21:54:58.062Z,98.07
2023-02-03T21:58:17.146Z,97.40
2023-02-03T22:01:23.829Z,87.00
2023-02-03T22:04:30.686Z,101.85
2023-02-03T22:07:32.856Z,89.38
2023-02-03T22:10:35.546Z,104.00
2023-02-03T22:13:38.081Z,93.70
2023-02-03T22:16:40.789Z,94.00
2023-02-03T22:19:42.965Z,90.47
2023-02-03T22:22:45.166Z,88.55
2023-02-03T22:25:47.988Z,88.78
2023-02-03T22:28:50.154Z,88.28
2023-02-03T22:31:52.434Z,82.47
2023-02-03T22:34:54.698Z,88.28
2023-02-03T22:37:57.354Z,83.72
2023-02-03T22:41:00.061Z,85.53
2023-02-03T22:44:03.313Z,90.13
2023-02-03T22:47:05.456Z,86.82
2023-02-03T22:50:09.765Z,80.85
2023-02-03T22:53:11.959Z,83.30
2023-02-03T22:56:14.185Z,88.25
2023-02-03T22:59:16.384Z,77.15
2023-02-03T23:02:18.582Z,80.15
2023-02-03T23:05:21.630Z,85.03
2023-02-03T23:08:23.866Z,84.93
2023-02-03T23:11:26.058Z,82.57
2023-02-03T23:14:28.346Z,77.68
2023-02-03T23:17:30.472Z,86.38
2023-02-03T23:20:33.286Z,85.45
2023-02-03T23:23:35.636Z,89.22
2023-02-03T23:26:37.880Z,86.82
2023-02-03T23:29:40.148Z,89.78
2023-02-03T23:32:42.524Z,93.72
2023-02-03T23:35:47.645Z,89.90
2023-02-03T23:38:49.938Z,94.40
2023-02-03T23:41:52.070Z,90.85
2023-02-03T23:44:54.305Z,87.88
2023-02-03T23:47:56.503Z,88.25
2023-02-03T23:50:58.755Z,88.50
2023-02-03T23:54:00.928Z,87.03
2023-02-03T23:57:04.903Z,78.05
